Time;durP1;ratioP1;P1;durP2;ratioP2;P2;SDS_P1;SDS_P2;PMS_P1;PMS_P2;Temp;Humidity;BMP_temperature;BMP_pressure;BME280_temperature;BME280_humidity;BME280_pressure;Samples;Min_cycle;Max_cycle;Signal;HPM_P1;HPM_P2
2020/12/17 00:00:27;;;;;;;56.22;30.85;;;4.00;94.80;;;;;;2079551;28;20481;-75
2020/12/17 00:01:28;;;;;;;59.03;31.92;;;3.90;94.70;;;;;;2079628;28;20037;-75
2020/12/17 00:02:29;;;;;;;59.55;31.27;;;4.00;94.80;;;;;;2079533;28;20449;-77
2020/12/17 00:03:29;;;;;;;57.95;30.90;;;4.00;94.70;;;;;;2071397;28;20474;-75
2020/12/17 00:04:30;;;;;;;60.50;31.98;;;4.00;94.60;;;;;;2071381;28;20060;-75
2020/12/17 00:05:31;;;;;;;57.92;31.25;;;4.00;94.60;;;;;;2079532;28;20030;-75
2020/12/17 00:06:31;;;;;;;56.90;30.70;;;4.00;94.60;;;;;;2080155;28;20076;-75
2020/12/17 00:07:32;;;;;;;55.25;30.70;;;4.00;94.60;;;;;;2079995;28;20369;-76
2020/12/17 00:08:33;;;;;;;57.75;30.65;;;4.00;94.50;;;;;;2071574;28;20030;-75
2020/12/17 00:09:33;;;;;;;52.22;29.02;;;4.00;94.40;;;;;;2067038;28;20057;-75
2020/12/17 00:10:36;;;;;;;53.13;29.02;;;4.00;94.40;;;;;;2081854;28;20030;-75
2020/12/17 00:11:37;;;;;;;54.90;29.88;;;4.00;94.40;;;;;;2083324;28;20089;-75
2020/12/17 00:12:40;;;;;;;54.78;29.85;;;4.00;94.40;;;;;;2081073;28;20044;-76
2020/12/17 00:13:41;;;;;;;57.55;31.08;;;3.90;94.40;;;;;;2080965;28;20092;-75
2020/12/17 00:14:42;;;;;;;58.15;31.83;;;3.90;94.50;;;;;;2079881;28;20107;-77
2020/12/17 00:15:42;;;;;;;58.03;31.10;;;4.00;94.60;;;;;;2071340;28;20524;-77
2020/12/17 00:16:43;;;;;;;59.22;31.80;;;4.00;94.60;;;;;;2079563;28;20033;-76
2020/12/17 00:17:54;;;;;;;57.08;30.55;;;3.90;94.60;;;;;;2080117;28;20111;-76
2020/12/17 00:18:55;;;;;;;58.15;32.05;;;4.00;94.60;;;;;;2071325;28;20034;-76
2020/12/17 00:19:55;;;;;;;61.42;32.30;;;4.00;94.60;;;;;;2071468;28;20095;-77
2020/12/17 00:20:56;;;;;;;59.22;30.98;;;4.00;94.60;;;;;;2087622;28;20028;-76
2020/12/17 00:21:57;;;;;;;56.88;30.58;;;4.00;94.60;;;;;;2079979;28;20228;-76
2020/12/17 00:22:57;;;;;;;56.97;30.75;;;3.90;94.50;;;;;;2080118;28;20018;-76
2020/12/17 00:23:58;;;;;;;54.30;30.33;;;4.00;94.60;;;;;;2079799;28;20142;-76
2020/12/17 00:24:59;;;;;;;56.35;30.70;;;4.00;94.50;;;;;;2071521;28;20431;-76
2020/12/17 00:26:00;;;;;;;55.53;30.55;;;4.00;94.60;;;;;;2071580;28;20096;-76
2020/12/17 00:27:01;;;;;;;53.55;30.17;;;4.00;94.50;;;;;;2080681;28;20022;-76
2020/12/17 00:28:01;;;;;;;53.63;29.92;;;3.90;94.40;;;;;;2081406;28;20036;-76
2020/12/17 00:29:02;;;;;;;53.30;29.75;;;4.00;94.50;;;;;;2081533;28;20018;-76
2020/12/17 00:30:05;;;;;;;53.75;29.92;;;3.90;94.50;;;;;;2080972;28;20495;-76
2020/12/17 00:31:05;;;;;;;55.20;30.92;;;3.90;94.40;;;;;;2064778;28;20042;-77
2020/12/17 00:32:06;;;;;;;54.03;30.02;;;4.00;94.60;;;;;;2064489;28;20030;-76
2020/12/17 00:33:07;;;;;;;53.22;30.25;;;4.00;94.50;;;;;;2072677;28;20033;-76
2020/12/17 00:34:08;;;;;;;54.25;30.02;;;4.00;94.40;;;;;;2080923;28;20021;-76
2020/12/17 00:35:09;;;;;;;54.53;30.23;;;4.00;94.30;;;;;;2080915;28;20037;-76
2020/12/17 00:36:10;;;;;;;56.08;30.85;;;3.90;94.30;;;;;;2081048;28;20034;-76
2020/12/17 00:37:10;;;;;;;55.47;30.42;;;3.90;94.30;;;;;;2080674;28;20547;-76
2020/12/17 00:38:11;;;;;;;55.65;30.08;;;3.90;94.40;;;;;;2081830;28;20018;-76
2020/12/17 00:39:12;;;;;;;53.45;29.48;;;3.90;94.40;;;;;;2080951;28;20037;-76
2020/12/17 00:40:14;;;;;;;54.30;30.42;;;4.00;94.40;;;;;;2072736;28;20049;-76
2020/12/17 00:41:16;;;;;;;57.90;31.25;;;3.90;94.30;;;;;;2080634;28;20393;-76
2020/12/17 00:42:17;;;;;;;57.10;31.30;;;3.90;94.30;;;;;;2080814;28;20044;-76
2020/12/17 00:43:18;;;;;;;55.47;30.65;;;3.90;94.50;;;;;;2072524;28;20370;-76
2020/12/17 00:44:18;;;;;;;54.15;30.35;;;4.00;94.30;;;;;;2080836;28;20439;-76
2020/12/17 00:45:19;;;;;;;58.35;31.45;;;3.90;94.20;;;;;;2088938;28;20075;-76
2020/12/17 00:46:20;;;;;;;56.38;30.88;;;3.90;94.30;;;;;;2089070;28;20021;-76
2020/12/17 00:47:20;;;;;;;55.90;31.50;;;3.90;94.30;;;;;;2081200;28;20021;-76
2020/12/17 00:48:21;;;;;;;55.53;30.58;;;3.90;94.30;;;;;;2072524;28;20038;-76
2020/12/17 00:49:21;;;;;;;55.17;30.70;;;3.90;94.30;;;;;;2072722;28;20114;-76
2020/12/17 00:50:22;;;;;;;58.13;31.48;;;4.00;94.20;;;;;;2081345;28;20448;-76
2020/12/17 00:51:23;;;;;;;57.00;30.42;;;3.90;94.20;;;;;;2081397;28;20509;-76
2020/12/17 00:52:24;;;;;;;56.97;31.02;;;4.00;94.20;;;;;;2080596;28;20029;-76
2020/12/17 00:53:25;;;;;;;58.83;31.58;;;4.00;94.20;;;;;;2073046;28;20117;-76
2020/12/17 00:54:26;;;;;;;60.58;33.15;;;3.90;94.10;;;;;;2073212;28;20101;-76
2020/12/17 00:55:26;;;;;;;56.55;30.70;;;3.90;94.10;;;;;;2073022;28;20138;-76
2020/12/17 00:56:27;;;;;;;56.78;30.63;;;3.90;94.10;;;;;;2072388;28;20049;-76
2020/12/17 00:57:28;;;;;;;53.60;29.63;;;3.90;94.10;;;;;;2078211;28;20032;-76
2020/12/17 00:58:28;;;;;;;52.78;28.85;;;3.90;94.10;;;;;;2081395;28;20027;-76
2020/12/17 00:59:29;;;;;;;56.78;30.25;;;3.80;94.10;;;;;;2081511;28;20057;-76
2020/12/17 01:00:30;;;;;;;52.33;29.55;;;3.80;94.10;;;;;;2081323;28;20038;-76
2020/12/17 01:01:30;;;;;;;59.53;31.60;;;3.80;94.10;;;;;;2080387;28;20036;-76
2020/12/17 01:02:31;;;;;;;56.05;30.83;;;3.80;94.20;;;;;;2080733;28;20156;-76
2020/12/17 01:03:32;;;;;;;56.42;31.52;;;3.80;94.20;;;;;;2080736;28;20053;-76
2020/12/17 01:04:33;;;;;;;64.43;32.90;;;3.80;94.20;;;;;;2080737;28;20025;-76
2020/12/17 01:05:34;;;;;;;58.72;32.08;;;3.80;94.20;;;;;;2080645;28;20022;-77
2020/12/17 01:06:34;;;;;;;55.72;31.33;;;3.80;94.10;;;;;;2080708;28;20014;-76
2020/12/17 01:07:35;;;;;;;57.50;31.52;;;3.80;94.10;;;;;;2080321;28;20040;-76
2020/12/17 01:08:36;;;;;;;59.28;31.50;;;3.80;94.20;;;;;;2080655;28;20231;-77
2020/12/17 01:09:37;;;;;;;57.47;32.17;;;3.80;94.20;;;;;;2080690;28;20018;-76
2020/12/17 01:10:38;;;;;;;57.47;31.92;;;3.80;94.20;;;;;;2081332;28;20037;-76
2020/12/17 01:11:38;;;;;;;58.88;32.22;;;3.80;94.20;;;;;;2080558;28;20025;-76
2020/12/17 01:12:40;;;;;;;59.83;32.83;;;3.80;94.20;;;;;;2080683;28;20645;-76
2020/12/17 01:13:41;;;;;;;57.20;32.00;;;3.70;94.30;;;;;;2080680;28;20421;-76
2020/12/17 01:14:42;;;;;;;54.70;30.23;;;3.80;94.30;;;;;;2072444;28;20157;-76
2020/12/17 01:15:42;;;;;;;56.72;30.75;;;3.70;94.20;;;;;;2080494;28;20490;-77
2020/12/17 01:16:47;;;;;;;61.38;32.53;;;3.70;94.10;;;;;;2081204;28;20044;-77
2020/12/17 01:17:49;;;;;;;56.42;31.58;;;3.70;94.20;;;;;;2080980;28;20040;-77
2020/12/17 01:18:50;;;;;;;59.08;31.30;;;3.70;94.20;;;;;;2080646;28;20048;-76
2020/12/17 01:19:50;;;;;;;59.15;31.63;;;3.70;94.20;;;;;;2072578;28;20041;-77
2020/12/17 01:20:51;;;;;;;61.13;32.10;;;3.70;94.20;;;;;;2080741;28;20025;-76
2020/12/17 01:21:52;;;;;;;61.75;32.47;;;3.70;94.20;;;;;;2081098;28;20624;-76
2020/12/17 01:22:54;;;;;;;60.33;31.98;;;3.70;94.20;;;;;;2081456;28;20030;-76
2020/12/17 01:23:54;;;;;;;57.40;31.05;;;3.70;94.20;;;;;;2081493;28;20025;-76
2020/12/17 01:24:55;;;;;;;55.63;30.90;;;3.70;94.20;;;;;;2080762;28;20036;-76
2020/12/17 01:25:56;;;;;;;56.92;31.20;;;3.70;94.10;;;;;;2080573;28;20146;-76
2020/12/17 01:26:57;;;;;;;57.80;31.17;;;3.70;94.20;;;;;;2080932;28;20101;-76
2020/12/17 01:27:57;;;;;;;56.97;32.03;;;3.70;94.20;;;;;;2080365;28;20025;-76
2020/12/17 01:28:58;;;;;;;59.45;32.40;;;3.70;94.20;;;;;;2080427;28;20030;-76
2020/12/17 01:29:59;;;;;;;58.47;32.13;;;3.80;94.10;;;;;;2080904;28;20063;-77
2020/12/17 01:30:59;;;;;;;57.28;30.92;;;3.80;94.10;;;;;;2080162;28;20424;-76
2020/12/17 01:32:00;;;;;;;60.35;31.77;;;3.70;94.00;;;;;;2080173;28;20464;-76
2020/12/17 01:33:01;;;;;;;60.75;31.92;;;3.80;94.00;;;;;;2080288;28;20017;-76
2020/12/17 01:34:01;;;;;;;59.72;31.90;;;3.80;93.90;;;;;;2072293;28;20565;-76
2020/12/17 01:35:03;;;;;;;61.00;32.40;;;3.80;94.30;;;;;;2080296;28;20473;-76
2020/12/17 01:36:05;;;;;;;56.58;31.08;;;3.80;93.90;;;;;;2080995;28;20025;-75
2020/12/17 01:37:06;;;;;;;58.45;31.83;;;3.80;93.90;;;;;;2080601;28;20041;-76
2020/12/17 01:38:06;;;;;;;57.65;31.40;;;3.80;93.90;;;;;;2081117;28;20053;-76
2020/12/17 01:39:07;;;;;;;58.88;32.47;;;3.80;93.90;;;;;;2081071;28;20049;-76
2020/12/17 01:40:08;;;;;;;59.85;32.85;;;3.80;93.80;;;;;;2080191;28;20112;-76
2020/12/17 01:41:14;;;;;;;57.25;31.48;;;3.80;93.80;;;;;;2080066;28;20076;-76
2020/12/17 01:42:14;;;;;;;60.85;32.50;;;3.80;93.80;;;;;;2081156;28;20507;-76
2020/12/17 01:43:15;;;;;;;63.08;33.00;;;3.80;93.70;;;;;;2080647;28;20037;-76
2020/12/17 01:44:16;;;;;;;59.60;32.10;;;3.80;93.70;;;;;;2080366;28;20040;-75
2020/12/17 01:45:18;;;;;;;63.92;33.80;;;3.80;93.70;;;;;;2080567;28;20037;-76
2020/12/17 01:46:18;;;;;;;58.08;32.13;;;3.80;93.80;;;;;;2080975;28;20045;-76
2020/12/17 01:47:19;;;;;;;61.83;32.30;;;3.80;93.70;;;;;;2080928;28;20025;-76
2020/12/17 01:48:20;;;;;;;61.33;33.33;;;3.80;93.70;;;;;;2080980;28;20159;-76
2020/12/17 01:49:25;;;;;;;59.53;32.17;;;3.80;93.80;;;;;;2081060;28;20021;-76
2020/12/17 01:50:26;;;;;;;65.68;33.72;;;3.70;93.80;;;;;;2080259;28;20464;-76
2020/12/17 01:51:27;;;;;;;62.83;32.72;;;3.70;93.80;;;;;;2079970;28;20038;-76
2020/12/17 01:52:28;;;;;;;63.58;33.78;;;3.80;93.90;;;;;;2079288;28;20737;-76
2020/12/17 01:53:32;;;;;;;63.55;33.22;;;3.80;93.80;;;;;;2072820;28;20044;-76
2020/12/17 01:54:33;;;;;;;63.92;32.65;;;3.70;93.80;;;;;;2072800;28;20034;-76
2020/12/17 01:55:34;;;;;;;62.05;33.22;;;3.70;93.80;;;;;;2072680;28;20068;-76
2020/12/17 01:56:38;;;;;;;62.88;33.55;;;3.80;93.80;;;;;;2072668;28;20405;-76
2020/12/17 01:57:42;;;;;;;58.65;32.13;;;3.70;93.80;;;;;;2079686;28;20024;-76
2020/12/17 01:58:51;;;;;;;59.55;32.80;;;3.70;93.70;;;;;;2080948;28;20547;-76
2020/12/17 01:59:55;;;;;;;58.47;30.85;;;3.70;93.80;;;;;;2081056;28;20033;-76
2020/12/17 02:00:59;;;;;;;61.33;32.50;;;3.70;93.80;;;;;;2080054;28;20364;-76
2020/12/17 02:02:03;;;;;;;62.58;32.83;;;3.70;93.90;;;;;;2071927;28;20089;-76
2020/12/17 02:03:05;;;;;;;65.25;33.83;;;3.60;93.90;;;;;;2080038;28;20124;-76
2020/12/17 02:04:05;;;;;;;63.22;33.25;;;3.60;94.00;;;;;;2071869;28;20042;-76
2020/12/17 02:05:07;;;;;;;63.33;33.58;;;3.60;94.00;;;;;;2071971;28;20036;-76
2020/12/17 02:06:08;;;;;;;60.60;32.45;;;3.60;94.00;;;;;;2080677;28;20040;-76
2020/12/17 02:07:09;;;;;;;60.67;33.05;;;3.60;94.00;;;;;;2080349;28;20315;-76
2020/12/17 02:08:13;;;;;;;60.45;32.22;;;3.60;94.10;;;;;;2080670;28;20037;-76
2020/12/17 02:09:15;;;;;;;64.43;33.83;;;3.60;94.10;;;;;;2079953;28;20033;-76
2020/12/17 02:10:17;;;;;;;64.82;33.58;;;3.60;94.10;;;;;;2072171;28;20049;-76
2020/12/17 02:11:19;;;;;;;63.05;33.60;;;3.60;94.10;;;;;;2080089;28;20036;-76
2020/12/17 02:12:19;;;;;;;65.50;33.53;;;3.60;94.10;;;;;;2080696;28;20132;-76
2020/12/17 02:13:33;;;;;;;63.67;33.92;;;3.60;94.20;;;;;;2080204;28;20044;-76
2020/12/17 02:14:34;;;;;;;66.35;34.17;;;3.60;94.20;;;;;;2080253;28;20037;-76
2020/12/17 02:15:34;;;;;;;68.10;35.13;;;3.60;94.20;;;;;;2080778;28;20033;-76
2020/12/17 02:16:35;;;;;;;65.25;34.58;;;3.60;94.20;;;;;;2080130;28;20384;-76
2020/12/17 02:17:36;;;;;;;67.53;34.88;;;3.60;94.20;;;;;;2071572;28;20179;-76
2020/12/17 02:18:36;;;;;;;65.97;34.78;;;3.50;94.30;;;;;;2080129;28;20041;-76
2020/12/17 02:19:37;;;;;;;68.43;35.30;;;3.60;94.30;;;;;;2080063;28;20033;-76
2020/12/17 02:20:38;;;;;;;69.57;35.42;;;3.60;94.30;;;;;;2079935;28;20132;-76
2020/12/17 02:21:39;;;;;;;67.70;34.35;;;3.60;94.40;;;;;;2080400;28;20037;-77
2020/12/17 02:22:40;;;;;;;66.15;35.20;;;3.60;94.30;;;;;;2071774;28;20116;-76
2020/12/17 02:23:44;;;;;;;62.50;33.50;;;3.60;94.30;;;;;;2071875;28;20493;-76
2020/12/17 02:24:44;;;;;;;66.68;34.63;;;3.60;94.10;;;;;;2079926;28;20067;-76
2020/12/17 02:25:45;;;;;;;69.38;35.33;;;3.60;94.10;;;;;;2080079;28;20040;-77
2020/12/17 02:26:46;;;;;;;69.07;35.95;;;3.60;94.10;;;;;;2080613;28;20024;-76
2020/12/17 02:27:47;;;;;;;66.20;34.85;;;3.60;94.10;;;;;;2080605;28;20029;-76
2020/12/17 02:28:47;;;;;;;64.55;34.80;;;3.60;94.40;;;;;;2080872;28;20029;-77
2020/12/17 02:29:48;;;;;;;65.20;34.88;;;3.60;94.10;;;;;;2080212;28;20029;-76
2020/12/17 02:30:49;;;;;;;67.03;35.13;;;3.60;94.10;;;;;;2072267;28;20065;-76
2020/12/17 02:31:50;;;;;;;70.40;36.22;;;3.60;94.10;;;;;;2071909;28;20122;-76
2020/12/17 02:32:51;;;;;;;66.18;34.47;;;3.60;94.10;;;;;;2081059;28;20148;-76
2020/12/17 02:33:51;;;;;;;69.63;35.58;;;3.60;94.10;;;;;;2080744;28;20101;-76
2020/12/17 02:34:52;;;;;;;74.10;35.08;;;3.60;94.10;;;;;;2080316;28;20559;-76
2020/12/17 02:35:54;;;;;;;68.30;35.05;;;3.60;94.20;;;;;;2071834;28;20072;-76
2020/12/17 02:36:54;;;;;;;66.07;34.78;;;3.60;94.20;;;;;;2079821;28;20414;-76
2020/12/17 02:37:55;;;;;;;65.20;34.15;;;3.60;94.10;;;;;;2080638;28;20029;-76
2020/12/17 02:38:56;;;;;;;66.75;34.63;;;3.60;94.10;;;;;;2080994;28;20021;-76
2020/12/17 02:39:57;;;;;;;67.03;35.15;;;3.60;94.10;;;;;;2080735;28;20032;-76
2020/12/17 02:40:57;;;;;;;68.60;35.30;;;3.60;94.10;;;;;;2080930;28;20469;-75
2020/12/17 02:41:58;;;;;;;66.20;34.53;;;3.60;94.10;;;;;;2080568;28;20040;-76
2020/12/17 02:42:59;;;;;;;68.90;35.92;;;3.60;94.10;;;;;;2080685;28;20028;-76
2020/12/17 02:44:00;;;;;;;64.80;34.17;;;3.70;94.10;;;;;;2080872;28;20451;-76
2020/12/17 02:45:01;;;;;;;60.90;33.05;;;3.60;94.00;;;;;;2080657;28;20029;-75
2020/12/17 02:46:01;;;;;;;65.78;34.80;;;3.60;94.00;;;;;;2080715;28;20383;-76
2020/12/17 02:47:02;;;;;;;66.43;33.75;;;3.60;94.00;;;;;;2079635;28;20029;-76
2020/12/17 02:48:03;;;;;;;65.38;34.83;;;3.70;94.10;;;;;;2079817;28;20493;-76
2020/12/17 02:49:04;;;;;;;68.03;34.70;;;3.70;94.10;;;;;;2071162;28;20148;-76
2020/12/17 02:50:04;;;;;;;62.90;33.90;;;3.70;94.10;;;;;;2079952;28;20029;-76
2020/12/17 02:51:05;;;;;;;63.08;33.22;;;3.70;94.10;;;;;;2080415;28;20597;-77
2020/12/17 02:52:06;;;;;;;64.30;34.20;;;3.60;94.00;;;;;;2080159;28;20440;-76
2020/12/17 02:53:08;;;;;;;67.22;35.20;;;3.60;94.00;;;;;;2073726;28;20030;-76
2020/12/17 02:54:09;;;;;;;69.55;35.05;;;3.60;94.10;;;;;;2071744;28;20138;-76
2020/12/17 02:55:10;;;;;;;70.20;35.03;;;3.60;94.10;;;;;;2071746;28;20098;-76
2020/12/17 02:56:14;;;;;;;68.20;34.80;;;3.60;94.20;;;;;;2072515;28;20022;-76
2020/12/17 02:57:16;;;;;;;66.63;34.10;;;3.60;94.10;;;;;;2075877;28;20033;-76
2020/12/17 02:58:17;;;;;;;65.82;34.65;;;3.60;94.20;;;;;;2079938;28;20093;-76
2020/12/17 02:59:18;;;;;;;67.18;34.00;;;3.60;94.20;;;;;;2079904;28;20563;-76
2020/12/17 03:00:18;;;;;;;64.70;33.72;;;3.60;94.20;;;;;;2079702;28;20053;-76
2020/12/17 03:01:19;;;;;;;68.88;34.60;;;3.60;94.20;;;;;;2079628;28;20060;-76
2020/12/17 03:02:19;;;;;;;63.53;32.72;;;3.60;94.10;;;;;;2080275;28;20528;-76
2020/12/17 03:03:20;;;;;;;66.80;34.15;;;3.60;94.10;;;;;;2080451;28;20029;-76
2020/12/17 03:04:21;;;;;;;66.68;34.15;;;3.60;94.10;;;;;;2079725;28;20026;-76
2020/12/17 03:05:21;;;;;;;68.75;34.65;;;3.60;94.20;;;;;;2071662;28;20382;-76
2020/12/17 03:06:22;;;;;;;67.60;34.10;;;3.60;94.20;;;;;;2071828;28;20026;-76
2020/12/17 03:07:23;;;;;;;63.05;33.05;;;3.60;94.20;;;;;;2079506;28;20040;-76
2020/12/17 03:08:26;;;;;;;64.03;33.00;;;3.50;94.20;;;;;;2079933;28;20037;-76
2020/12/17 03:09:26;;;;;;;61.70;32.65;;;3.60;94.20;;;;;;2080135;28;20567;-76
2020/12/17 03:10:27;;;;;;;63.90;32.95;;;3.60;94.20;;;;;;2080402;28;20036;-76
2020/12/17 03:11:28;;;;;;;66.80;33.35;;;3.60;94.10;;;;;;2080049;28;20484;-76
2020/12/17 03:12:28;;;;;;;60.40;31.88;;;3.60;94.10;;;;;;2080705;28;20072;-75
2020/12/17 03:13:29;;;;;;;63.78;32.30;;;3.60;94.10;;;;;;2080832;28;20124;-76
2020/12/17 03:14:30;;;;;;;63.33;32.92;;;3.60;94.10;;;;;;2082928;28;20495;-75
2020/12/17 03:15:30;;;;;;;62.30;32.67;;;3.60;94.10;;;;;;2082064;28;20029;-76
2020/12/17 03:16:32;;;;;;;63.60;32.63;;;3.60;94.10;;;;;;2082007;28;20055;-76
2020/12/17 03:17:33;;;;;;;62.35;32.75;;;3.60;94.00;;;;;;2082874;28;20385;-75
2020/12/17 03:18:34;;;;;;;63.90;33.20;;;3.70;94.00;;;;;;2087875;28;20036;-76
2020/12/17 03:19:34;;;;;;;63.83;32.40;;;3.70;93.90;;;;;;2080350;28;20025;-76
2020/12/17 03:20:35;;;;;;;61.33;32.20;;;3.70;93.90;;;;;;2080388;28;20477;-76
2020/12/17 03:21:36;;;;;;;63.67;32.33;;;3.70;93.80;;;;;;2080154;28;20029;-76
2020/12/17 03:22:37;;;;;;;60.97;32.03;;;3.70;93.80;;;;;;2080071;28;20100;-75
2020/12/17 03:23:38;;;;;;;60.17;31.65;;;3.70;93.90;;;;;;2079546;28;20492;-76
2020/12/17 03:24:39;;;;;;;63.10;31.58;;;3.70;93.80;;;;;;2071584;28;20025;-76
2020/12/17 03:25:39;;;;;;;61.30;31.83;;;3.70;93.80;;;;;;2071537;28;20165;-76
2020/12/17 03:26:40;;;;;;;62.60;32.10;;;3.70;93.70;;;;;;2079764;28;20505;-75
2020/12/17 03:27:41;;;;;;;61.55;32.10;;;3.70;93.70;;;;;;2079391;28;20028;-76
2020/12/17 03:28:41;;;;;;;63.63;32.70;;;3.70;93.70;;;;;;2079477;28;20075;-76
2020/12/17 03:29:42;;;;;;;65.13;32.58;;;3.70;93.70;;;;;;2079711;28;20155;-76
2020/12/17 03:30:43;;;;;;;60.85;32.22;;;3.70;93.70;;;;;;2087970;28;20056;-76
2020/12/17 03:31:43;;;;;;;63.83;32.55;;;3.70;93.70;;;;;;2080398;28;20487;-76
2020/12/17 03:32:44;;;;;;;63.28;32.22;;;3.70;93.80;;;;;;2080325;28;20037;-76
2020/12/17 03:33:45;;;;;;;61.55;32.33;;;3.70;93.80;;;;;;2079747;28;20120;-77
2020/12/17 03:34:46;;;;;;;62.88;32.63;;;3.70;93.80;;;;;;2080090;28;20160;-76
2020/12/17 03:35:46;;;;;;;61.67;32.15;;;3.60;93.80;;;;;;2079799;28;20021;-76
2020/12/17 03:36:47;;;;;;;59.90;32.30;;;3.60;93.90;;;;;;2079879;28;20029;-76
2020/12/17 03:37:48;;;;;;;63.92;31.85;;;3.70;93.80;;;;;;2079292;28;20078;-76
2020/12/17 03:38:49;;;;;;;64.18;33.53;;;3.70;93.80;;;;;;2071776;28;20022;-76
2020/12/17 03:39:49;;;;;;;63.22;32.30;;;3.60;93.80;;;;;;2071678;28;20120;-76
2020/12/17 03:40:50;;;;;;;63.53;33.25;;;3.70;93.90;;;;;;2079952;28;20026;-76
2020/12/17 03:41:51;;;;;;;62.55;32.20;;;3.70;93.90;;;;;;2080091;28;20556;-76
2020/12/17 03:42:52;;;;;;;63.17;32.53;;;3.60;93.80;;;;;;2080189;28;20033;-76
2020/12/17 03:43:53;;;;;;;62.83;32.08;;;3.60;93.80;;;;;;2080352;28;20041;-76
2020/12/17 03:44:54;;;;;;;62.38;33.08;;;3.60;93.80;;;;;;2080247;28;20036;-76
2020/12/17 03:45:54;;;;;;;62.00;31.45;;;3.60;93.90;;;;;;2071409;28;20050;-76
2020/12/17 03:46:55;;;;;;;63.15;32.75;;;3.60;93.80;;;;;;2071604;28;20021;-76
2020/12/17 03:47:56;;;;;;;64.65;32.53;;;3.60;93.90;;;;;;2080093;28;20087;-76
2020/12/17 03:48:57;;;;;;;62.50;32.90;;;3.60;93.90;;;;;;2080250;28;20480;-76
2020/12/17 03:49:57;;;;;;;65.45;33.08;;;3.60;93.90;;;;;;2080295;28;20072;-76
2020/12/17 03:50:58;;;;;;;64.70;32.78;;;3.60;93.90;;;;;;2079997;28;20028;-75
2020/12/17 03:51:59;;;;;;;62.92;33.10;;;3.60;93.90;;;;;;2080191;28;20112;-76
2020/12/17 03:52:59;;;;;;;67.63;33.72;;;3.60;93.90;;;;;;2065503;28;20042;-76
2020/12/17 03:54:00;;;;;;;65.88;33.17;;;3.50;94.00;;;;;;2063213;28;20050;-76
2020/12/17 03:55:01;;;;;;;67.57;34.10;;;3.50;94.00;;;;;;2071395;28;20036;-76
2020/12/17 03:56:02;;;;;;;67.10;33.30;;;3.50;94.10;;;;;;2063152;28;20042;-76
2020/12/17 03:57:03;;;;;;;65.28;32.42;;;3.60;94.10;;;;;;2073409;28;20535;-76
2020/12/17 03:58:03;;;;;;;62.00;31.85;;;3.50;94.00;;;;;;2080109;28;20029;-76
2020/12/17 03:59:04;;;;;;;63.55;32.55;;;3.60;94.00;;;;;;2080060;28;20116;-76
2020/12/17 04:00:05;;;;;;;60.70;32.25;;;3.60;94.00;;;;;;2079953;28;20037;-76
2020/12/17 04:01:07;;;;;;;62.85;32.13;;;3.60;93.90;;;;;;2080970;28;20439;-77
2020/12/17 04:02:08;;;;;;;65.97;33.70;;;3.60;93.80;;;;;;2081033;28;20049;-76
2020/12/17 04:03:08;;;;;;;62.92;32.60;;;3.60;93.90;;;;;;2080920;28;20033;-76
2020/12/17 04:04:09;;;;;;;64.35;32.45;;;3.60;94.30;;;;;;2081523;28;20025;-76
2020/12/17 04:05:10;;;;;;;64.63;33.00;;;3.60;93.90;;;;;;2081343;28;20045;-76
2020/12/17 04:06:10;;;;;;;62.08;32.13;;;3.60;93.90;;;;;;2081391;28;20108;-77
2020/12/17 04:07:13;;;;;;;60.90;32.47;;;3.60;93.90;;;;;;2081423;28;20021;-75
2020/12/17 04:08:13;;;;;;;104.20;34.15;;;3.60;93.90;;;;;;2081565;28;20025;-76
2020/12/17 04:09:14;;;;;;;65.75;32.60;;;3.60;93.90;;;;;;2081725;28;20033;-76
2020/12/17 04:10:15;;;;;;;62.78;32.47;;;3.60;93.90;;;;;;2081732;28;20112;-77
2020/12/17 04:11:15;;;;;;;65.47;33.80;;;3.60;94.00;;;;;;2081475;28;20026;-76
2020/12/17 04:12:16;;;;;;;62.45;32.05;;;3.60;93.90;;;;;;2081437;28;20481;-77
2020/12/17 04:13:17;;;;;;;63.97;32.78;;;3.60;93.90;;;;;;2081704;28;20029;-76
2020/12/17 04:14:17;;;;;;;61.28;31.88;;;3.60;93.90;;;;;;2081687;28;20114;-76
2020/12/17 04:15:18;;;;;;;63.53;32.33;;;3.60;93.90;;;;;;2072696;28;20036;-76
2020/12/17 04:16:19;;;;;;;65.28;32.58;;;3.60;93.90;;;;;;2064768;28;20486;-76
2020/12/17 04:17:20;;;;;;;63.38;33.33;;;3.60;94.00;;;;;;2080614;28;20029;-76
2020/12/17 04:18:20;;;;;;;64.40;32.35;;;3.60;94.00;;;;;;2080803;28;20122;-76
2020/12/17 04:19:21;;;;;;;62.38;32.53;;;3.50;94.00;;;;;;2080949;28;20021;-76
2020/12/17 04:20:22;;;;;;;61.53;32.00;;;3.60;94.00;;;;;;2081771;28;20029;-76
2020/12/17 04:21:23;;;;;;;64.75;32.53;;;3.60;94.00;;;;;;2081583;28;20044;-76
2020/12/17 04:22:23;;;;;;;61.72;32.47;;;3.50;93.90;;;;;;2080921;28;20033;-76
2020/12/17 04:23:24;;;;;;;62.03;33.35;;;3.60;94.00;;;;;;2080883;28;20777;-76
2020/12/17 04:24:25;;;;;;;64.75;32.67;;;3.60;94.00;;;;;;2081713;28;20086;-76
2020/12/17 04:25:26;;;;;;;61.08;31.70;;;3.60;94.00;;;;;;2080947;28;20065;-76
2020/12/17 04:26:26;;;;;;;62.85;32.90;;;3.60;94.00;;;;;;2080980;28;20467;-78
2020/12/17 04:27:27;;;;;;;63.25;32.30;;;3.60;94.00;;;;;;2081431;28;20091;-76
2020/12/17 04:28:28;;;;;;;62.83;32.63;;;3.60;94.00;;;;;;2081506;28;20521;-76
2020/12/17 04:29:28;;;;;;;63.55;33.15;;;3.60;93.90;;;;;;2081445;28;20021;-76
2020/12/17 04:30:29;;;;;;;63.08;32.20;;;3.60;93.90;;;;;;2080940;28;20021;-75
2020/12/17 04:31:30;;;;;;;62.10;32.25;;;3.60;93.80;;;;;;2080788;28;20570;-76
2020/12/17 04:32:31;;;;;;;66.00;32.97;;;3.60;93.80;;;;;;2081084;28;20108;-76
2020/12/17 04:33:31;;;;;;;57.40;30.85;;;3.60;93.90;;;;;;2080836;28;20076;-76
2020/12/17 04:34:32;;;;;;;64.03;32.03;;;3.60;93.90;;;;;;2081536;28;20053;-76
2020/12/17 04:35:33;;;;;;;62.97;32.50;;;3.60;93.90;;;;;;2080646;28;20025;-76
2020/12/17 04:36:33;;;;;;;63.22;32.55;;;3.50;93.90;;;;;;2080939;28;20037;-76
2020/12/17 04:37:34;;;;;;;62.38;32.13;;;3.50;93.90;;;;;;2081436;28;20029;-76
2020/12/17 04:38:35;;;;;;;63.53;32.20;;;3.50;94.00;;;;;;2072611;28;20052;-76
2020/12/17 04:39:35;;;;;;;61.58;32.20;;;3.50;94.00;;;;;;2072714;28;20042;-76
2020/12/17 04:40:36;;;;;;;62.65;32.33;;;3.50;94.10;;;;;;2080771;28;20060;-76
2020/12/17 04:41:42;;;;;;;60.88;30.75;;;3.50;94.10;;;;;;2080822;28;20045;-76
2020/12/17 04:42:47;;;;;;;62.15;32.05;;;3.50;94.00;;;;;;2081584;28;20045;-76
2020/12/17 04:43:48;;;;;;;60.58;31.70;;;3.50;94.10;;;;;;2081285;28;20026;-77
2020/12/17 04:44:49;;;;;;;61.55;32.22;;;3.50;94.10;;;;;;2081519;28;20124;-76
2020/12/17 04:45:50;;;;;;;59.88;31.90;;;3.50;94.10;;;;;;2081548;28;20021;-76
2020/12/17 04:47:05;;;;;;;62.70;32.08;;;3.50;94.00;;;;;;2081339;28;20095;-76
2020/12/17 04:48:07;;;;;;;62.03;32.00;;;3.50;94.10;;;;;;2081492;28;20392;-76
2020/12/17 04:49:10;;;;;;;64.43;32.22;;;3.50;94.10;;;;;;2080875;28;20038;-76
2020/12/17 04:50:14;;;;;;;61.50;31.05;;;3.50;94.10;;;;;;2080996;28;20025;-76
2020/12/17 04:51:15;;;;;;;63.13;31.67;;;3.50;94.00;;;;;;2084295;28;20022;-75
2020/12/17 04:52:16;;;;;;;61.78;31.35;;;3.50;94.00;;;;;;2083731;28;20124;-75
2020/12/17 04:53:18;;;;;;;58.95;30.27;;;3.50;94.00;;;;;;2067445;28;20031;-77
2020/12/17 04:54:19;;;;;;;59.85;31.35;;;3.50;93.90;;;;;;2068297;28;20033;-75
2020/12/17 04:55:23;;;;;;;62.80;31.63;;;3.50;94.00;;;;;;2068184;28;20022;-76
2020/12/17 04:56:26;;;;;;;61.47;31.58;;;3.50;94.00;;;;;;2076425;28;20022;-76
2020/12/17 04:57:27;;;;;;;61.92;31.85;;;3.50;94.00;;;;;;2081454;28;20029;-75
2020/12/17 04:58:31;;;;;;;57.22;30.95;;;3.50;94.00;;;;;;2084254;28;20138;-76
2020/12/17 04:59:49;;;;;;;60.63;30.80;;;3.50;94.00;;;;;;2085379;28;20044;-76
2020/12/17 05:00:54;;;;;;;60.30;29.75;;;3.50;94.10;;;;;;2075712;28;20041;-75
2020/12/17 05:01:59;;;;;;;62.65;31.85;;;3.50;94.10;;;;;;2066251;28;20576;-74
2020/12/17 05:03:07;;;;;;;59.17;30.52;;;3.40;94.10;;;;;;2081141;28;20067;-75
2020/12/17 05:04:10;;;;;;;63.28;32.25;;;3.50;94.20;;;;;;2081159;28;20052;-75
2020/12/17 05:05:12;;;;;;;60.67;31.23;;;3.40;94.60;;;;;;2072732;28;20034;-75
2020/12/17 05:06:20;;;;;;;60.63;31.15;;;3.40;94.30;;;;;;2072790;28;20030;-77
2020/12/17 05:07:23;;;;;;;61.50;30.92;;;3.40;94.30;;;;;;2080556;28;20443;-75
2020/12/17 05:08:24;;;;;;;61.60;31.13;;;3.40;94.40;;;;;;2080566;28;20025;-75
2020/12/17 05:09:24;;;;;;;60.88;30.98;;;3.40;94.40;;;;;;2081519;28;20068;-75
2020/12/17 05:10:25;;;;;;;63.50;31.13;;;3.40;94.30;;;;;;2081592;28;20415;-75
2020/12/17 05:11:26;;;;;;;60.72;32.05;;;3.50;94.40;;;;;;2081162;28;20037;-76
2020/12/17 05:12:27;;;;;;;58.88;30.83;;;3.40;94.40;;;;;;2071854;28;20041;-75
2020/12/17 05:13:28;;;;;;;62.05;31.00;;;3.50;94.40;;;;;;2072381;28;20026;-75
2020/12/17 05:14:29;;;;;;;61.13;30.50;;;3.50;94.40;;;;;;2081256;28;20603;-75